Mansfield, Connecticut
Current Conditions -  °F | °C
As of 2:05 PM on Thursday 23 Oct 2014 (Local Time) from KIJD Reporting Station
Overcast Overcast  
Wind Chill: 55°   Ceiling: 1400
Heat Index: 55°   Visibility: 10mi
Dew Point: 48°   Wind: 13mph
Humidity: 77%   Direction: 360°N
Pressure: 29.62"   Gusts: NA
Location:  41.8004°N, 72.2476°W
Report Text: KIJD 231805Z AUTO 36011KT 10SM OVC014 13/09 A2962 RMK AO2 T01280089
Loading
Personal Weather Stations






























Interactive Weather Map
Tropical Storm Tracking
New forecast layout! Learn more

10-Day Weather Forecast

Advertisements
Track Severe Weather on mobile